createdAt,value
2022-11-06T00:01:24.787Z,3.37
2022-11-06T00:03:54.986Z,3.62
2022-11-06T00:06:40.395Z,3.56
2022-11-06T00:09:10.798Z,2.99
2022-11-06T00:11:38.934Z,3.69
2022-11-06T00:14:06.394Z,3.62
2022-11-06T00:16:33.063Z,3.00
2022-11-06T00:19:01.453Z,3.28
2022-11-06T00:21:30.400Z,3.67
2022-11-06T00:23:59.377Z,3.75
2022-11-06T00:26:30.462Z,3.52
2022-11-06T00:28:57.691Z,3.34
2022-11-06T00:31:30.392Z,3.67
2022-11-06T00:33:58.822Z,3.35
2022-11-06T00:36:27.136Z,3.59
2022-11-06T00:38:55.249Z,3.58
2022-11-06T00:41:23.329Z,3.52
2022-11-06T00:43:56.056Z,3.37
2022-11-06T00:46:23.197Z,3.51
2022-11-06T00:48:50.256Z,3.55
2022-11-06T00:51:29.325Z,3.54
2022-11-06T00:53:59.039Z,3.46
2022-11-06T00:56:26.429Z,3.64
2022-11-06T00:58:53.491Z,3.22
2022-11-06T01:01:30.039Z,3.55
2022-11-06T01:03:59.482Z,3.28
2022-11-06T01:06:29.463Z,3.46
2022-11-06T01:08:57.105Z,3.46
2022-11-06T01:11:25.012Z,3.51
2022-11-06T01:13:58.238Z,3.49
2022-11-06T01:16:26.187Z,3.11
2022-11-06T01:18:54.325Z,3.39
2022-11-06T01:21:29.374Z,3.07
2022-11-06T01:24:02.477Z,3.46
2022-11-06T01:26:38.300Z,3.46
2022-11-06T01:29:10.888Z,3.24
2022-11-06T01:31:38.528Z,3.37
2022-11-06T01:34:05.161Z,3.23
2022-11-06T01:36:32.718Z,3.02
2022-11-06T01:39:04.215Z,3.37
2022-11-06T01:41:38.071Z,3.34
2022-11-06T01:44:50.484Z,3.35
2022-11-06T01:47:28.820Z,3.25
2022-11-06T01:49:58.647Z,3.17
2022-11-06T01:52:28.193Z,3.12
2022-11-06T01:55:00.917Z,3.28
2022-11-06T01:57:27.717Z,3.25
2022-11-06T01:59:55.410Z,2.77
2022-11-06T02:02:23.009Z,2.79
2022-11-06T02:04:50.434Z,3.16
2022-11-06T02:07:18.682Z,2.90
2022-11-06T02:09:45.737Z,3.22
2022-11-06T02:12:14.661Z,3.23
2022-11-06T02:15:01.506Z,3.21
2022-11-06T02:17:40.110Z,3.09
2022-11-06T02:20:26.010Z,2.84
2022-11-06T02:23:20.454Z,3.07
2022-11-06T02:26:01.398Z,2.93
2022-11-06T02:28:41.453Z,2.93
2022-11-06T02:31:15.652Z,2.90
2022-11-06T02:34:11.659Z,2.87
2022-11-06T02:36:43.825Z,3.46
2022-11-06T02:39:15.627Z,3.47
2022-11-06T02:41:46.161Z,3.61
2022-11-06T02:44:18.765Z,3.32
2022-11-06T02:46:53.745Z,3.46
2022-11-06T02:49:24.926Z,3.29
2022-11-06T02:51:56.823Z,3.40
2022-11-06T02:54:26.647Z,3.33
2022-11-06T02:56:56.136Z,3.24
2022-11-06T02:59:41.436Z,3.08
2022-11-06T03:02:14.248Z,3.25
2022-11-06T03:04:48.717Z,2.82
2022-11-06T03:07:28.744Z,2.78
2022-11-06T03:09:56.265Z,2.78
2022-11-06T03:12:31.176Z,3.10
2022-11-06T03:15:02.965Z,3.13
2022-11-06T03:17:39.500Z,2.91
2022-11-06T03:20:21.800Z,2.85
2022-11-06T03:22:55.634Z,2.87
2022-11-06T03:25:24.830Z,2.82
2022-11-06T03:28:10.832Z,2.79
2022-11-06T03:30:44.887Z,2.45
2022-11-06T03:33:20.139Z,2.55
2022-11-06T03:35:53.045Z,2.60
2022-11-06T03:38:37.169Z,2.64
2022-11-06T03:41:20.552Z,2.19
2022-11-06T03:43:49.531Z,2.51
2022-11-06T03:46:22.008Z,2.54
2022-11-06T03:49:01.011Z,2.35
2022-11-06T03:51:39.132Z,2.82
2022-11-06T03:54:13.834Z,2.45
2022-11-06T03:56:50.974Z,2.09
2022-11-06T03:59:23.339Z,2.57
2022-11-06T04:01:53.380Z,2.60
2022-11-06T04:04:27.922Z,2.31
2022-11-06T04:07:02.275Z,2.57
2022-11-06T04:09:51.687Z,2.48
2022-11-06T04:12:41.535Z,2.35
2022-11-06T04:15:13.247Z,2.15
2022-11-06T04:17:40.981Z,2.34
2022-11-06T04:20:12.248Z,1.92
2022-11-06T04:22:41.872Z,2.29
2022-11-06T04:25:33.282Z,2.32
2022-11-06T04:28:06.075Z,2.37
2022-11-06T04:30:40.413Z,2.10
2022-11-06T04:33:14.534Z,2.24
2022-11-06T04:36:06.349Z,2.34
2022-11-06T04:38:54.568Z,2.24
2022-11-06T04:41:34.518Z,1.97
2022-11-06T04:44:10.897Z,2.16
2022-11-06T04:46:45.229Z,2.08
2022-11-06T04:49:13.243Z,2.06
2022-11-06T04:51:42.597Z,1.82
2022-11-06T04:54:10.590Z,2.04
2022-11-06T04:56:42.860Z,1.98
2022-11-06T04:59:15.462Z,2.03
2022-11-06T05:01:42.073Z,1.54
2022-11-06T05:04:09.346Z,2.05
2022-11-06T05:06:35.995Z,2.01
2022-11-06T05:09:02.801Z,2.03
2022-11-06T05:11:29.390Z,2.21
2022-11-06T05:13:56.014Z,2.42
2022-11-06T05:16:22.621Z,1.96
2022-11-06T05:18:49.198Z,2.45
2022-11-06T05:21:34.383Z,2.20
2022-11-06T05:24:00.968Z,2.19
2022-11-06T05:26:27.634Z,2.31
2022-11-06T05:28:54.171Z,2.37
2022-11-06T05:31:20.817Z,2.36
2022-11-06T05:33:47.394Z,2.05
2022-11-06T05:36:14.014Z,2.49
2022-11-06T05:38:40.709Z,2.73
2022-11-06T05:41:07.335Z,2.50
2022-11-06T05:43:33.988Z,2.67
2022-11-06T05:46:00.643Z,2.43
2022-11-06T05:48:28.503Z,2.60
2022-11-06T05:51:03.882Z,2.57
2022-11-06T05:53:35.767Z,2.76
2022-11-06T05:56:03.488Z,3.01
2022-11-06T05:58:30.097Z,2.67
2022-11-06T06:00:58.147Z,3.08
2022-11-06T06:03:25.651Z,3.05
2022-11-06T06:05:52.350Z,2.71
2022-11-06T06:08:19.171Z,2.99
2022-11-06T06:10:47.347Z,2.97
2022-11-06T06:13:14.866Z,3.22
2022-11-06T06:15:42.864Z,3.07
2022-11-06T06:18:10.362Z,2.95
2022-11-06T06:20:37.235Z,3.25
2022-11-06T06:23:03.862Z,2.66
2022-11-06T06:25:31.045Z,3.09
2022-11-06T06:27:58.430Z,3.13
2022-11-06T06:30:25.517Z,3.14
2022-11-06T06:32:52.371Z,3.08
2022-11-06T06:35:19.018Z,3.13
2022-11-06T06:37:54.827Z,2.90
2022-11-06T06:40:23.110Z,3.08
2022-11-06T06:42:49.705Z,2.67
2022-11-06T06:45:16.491Z,2.82
2022-11-06T06:47:43.079Z,3.25
2022-11-06T06:50:10.390Z,2.74
2022-11-06T06:52:37.152Z,3.14
2022-11-06T06:55:04.841Z,3.31
2022-11-06T06:57:31.450Z,2.98
2022-11-06T06:59:58.104Z,3.31
2022-11-06T07:02:24.806Z,3.06
2022-11-06T07:04:51.450Z,3.21
2022-11-06T07:07:18.149Z,3.03
2022-11-06T07:09:44.725Z,3.20
2022-11-06T07:12:11.318Z,3.22
2022-11-06T07:14:38.000Z,3.30
2022-11-06T07:17:04.574Z,3.48
2022-11-06T07:19:31.133Z,2.69
2022-11-06T07:21:57.767Z,3.42
2022-11-06T07:24:24.357Z,3.09
2022-11-06T07:26:50.932Z,3.41
2022-11-06T07:29:17.563Z,3.22
2022-11-06T07:31:44.180Z,3.42
2022-11-06T07:34:10.863Z,3.10
2022-11-06T07:36:37.526Z,3.02
2022-11-06T07:39:04.205Z,3.03
2022-11-06T07:41:30.855Z,3.36
2022-11-06T07:43:57.520Z,3.31
2022-11-06T07:46:24.141Z,3.32
2022-11-06T07:48:50.808Z,3.52
2022-11-06T07:51:17.559Z,3.54
2022-11-06T07:53:44.145Z,3.65
2022-11-06T07:56:10.735Z,3.32
2022-11-06T07:58:37.560Z,3.65
2022-11-06T08:01:04.495Z,3.28
2022-11-06T08:03:31.353Z,3.61
2022-11-06T08:05:59.327Z,3.42
2022-11-06T08:08:27.464Z,3.45
2022-11-06T08:10:55.125Z,3.46
2022-11-06T08:13:21.909Z,3.69
2022-11-06T08:15:48.539Z,3.50
2022-11-06T08:18:15.549Z,3.62
2022-11-06T08:20:42.451Z,3.93
2022-11-06T08:23:11.733Z,3.93
2022-11-06T08:25:38.483Z,3.73
2022-11-06T08:28:05.833Z,3.83
2022-11-06T08:30:32.568Z,3.75
2022-11-06T08:33:04.931Z,3.90
2022-11-06T08:35:32.229Z,3.93
2022-11-06T08:37:58.867Z,3.80
2022-11-06T08:40:30.570Z,3.44
2022-11-06T08:43:06.965Z,3.99
2022-11-06T08:45:36.984Z,4.01
2022-11-06T08:48:04.660Z,3.89
2022-11-06T08:50:32.698Z,3.80
2022-11-06T08:53:04.440Z,3.91
2022-11-06T08:55:32.427Z,3.81
2022-11-06T08:57:59.645Z,3.89
2022-11-06T09:00:27.012Z,3.63
2022-11-06T09:03:01.385Z,3.84
2022-11-06T09:05:29.425Z,3.98
2022-11-06T09:07:59.553Z,4.04
2022-11-06T09:10:27.573Z,3.96
2022-11-06T09:12:54.527Z,3.96
2022-11-06T09:15:21.259Z,4.10
2022-11-06T09:17:50.247Z,4.11
2022-11-06T09:20:21.694Z,4.40
2022-11-06T09:22:48.949Z,4.08
2022-11-06T09:25:15.756Z,4.36
2022-11-06T09:27:47.919Z,4.29
2022-11-06T09:30:17.378Z,4.47
2022-11-06T09:32:49.159Z,4.07
2022-11-06T09:35:16.192Z,4.18
2022-11-06T09:37:43.060Z,4.39
2022-11-06T09:40:20.715Z,4.63
2022-11-06T09:43:02.455Z,4.68
2022-11-06T09:45:32.261Z,4.59
2022-11-06T09:48:01.843Z,4.75
2022-11-06T09:50:34.204Z,4.84
2022-11-06T09:53:07.595Z,4.77
2022-11-06T09:55:39.741Z,4.50
2022-11-06T09:58:24.341Z,4.70
2022-11-06T10:00:53.423Z,4.67
2022-11-06T10:03:29.521Z,4.82
2022-11-06T10:05:56.255Z,4.79
2022-11-06T10:08:26.976Z,4.75
2022-11-06T10:11:03.118Z,4.56
2022-11-06T10:13:47.748Z,4.95
2022-11-06T10:16:23.460Z,5.04
2022-11-06T10:19:19.718Z,5.00
2022-11-06T10:21:49.033Z,5.10
2022-11-06T10:24:35.142Z,5.10
2022-11-06T10:27:10.872Z,5.10
2022-11-06T10:30:08.672Z,5.09
2022-11-06T10:32:45.075Z,5.16
2022-11-06T10:35:27.948Z,5.02
2022-11-06T10:38:03.864Z,5.21
2022-11-06T10:40:32.691Z,5.30
2022-11-06T10:43:36.938Z,5.29
2022-11-06T10:46:20.570Z,5.26
2022-11-06T10:48:52.821Z,4.97
2022-11-06T10:52:04.009Z,5.26
2022-11-06T10:54:52.574Z,5.22
2022-11-06T10:57:41.491Z,4.91
2022-11-06T11:00:15.981Z,4.84
2022-11-06T11:02:53.237Z,4.87
2022-11-06T11:05:22.181Z,5.08
2022-11-06T11:07:50.824Z,5.11
2022-11-06T11:10:23.467Z,5.22
2022-11-06T11:12:52.315Z,4.93
2022-11-06T11:15:21.379Z,5.27
2022-11-06T11:18:07.812Z,5.29
2022-11-06T11:20:37.084Z,5.03
2022-11-06T11:23:22.508Z,5.36
2022-11-06T11:25:55.033Z,5.15
2022-11-06T11:28:29.768Z,5.52
2022-11-06T11:31:10.661Z,5.71
2022-11-06T11:33:39.398Z,5.57
2022-11-06T11:36:08.502Z,5.46
2022-11-06T11:38:37.749Z,5.67
2022-11-06T11:41:09.440Z,5.97
2022-11-06T11:43:36.122Z,5.73
2022-11-06T11:46:09.004Z,6.03
2022-11-06T11:48:55.984Z,5.99
2022-11-06T11:51:43.321Z,5.76
2022-11-06T11:54:12.980Z,6.13
2022-11-06T11:57:04.743Z,6.17
2022-11-06T11:59:43.740Z,5.95
2022-11-06T12:02:28.279Z,6.27
2022-11-06T12:05:13.671Z,6.11
2022-11-06T12:07:50.034Z,6.39
2022-11-06T12:10:28.544Z,6.45
2022-11-06T12:12:57.446Z,6.53
2022-11-06T12:15:51.213Z,6.60
2022-11-06T12:18:27.229Z,6.43
2022-11-06T12:21:17.368Z,6.59
2022-11-06T12:23:55.756Z,6.55
2022-11-06T12:26:37.495Z,6.67
2022-11-06T12:29:19.376Z,6.67
2022-11-06T12:32:06.261Z,6.71
2022-11-06T12:34:55.418Z,6.74
2022-11-06T12:37:46.969Z,6.64
2022-11-06T12:40:28.723Z,6.92
2022-11-06T12:43:20.838Z,6.64
2022-11-06T12:46:29.458Z,6.84
2022-11-06T12:48:58.996Z,6.91
2022-11-06T12:52:02.907Z,6.89
2022-11-06T12:55:03.741Z,6.97
2022-11-06T12:57:53.643Z,7.20
2022-11-06T13:00:26.039Z,7.50
2022-11-06T13:03:19.702Z,7.97
2022-11-06T13:05:46.275Z,9.22
2022-11-06T13:08:32.621Z,9.76
2022-11-06T13:11:21.092Z,10.51
2022-11-06T13:14:27.766Z,11.38
2022-11-06T13:17:06.092Z,10.24
2022-11-06T13:19:32.677Z,10.21
2022-11-06T13:22:11.480Z,10.74
2022-11-06T13:24:48.111Z,10.54
2022-11-06T13:27:33.500Z,10.20
2022-11-06T13:30:15.462Z,10.51
2022-11-06T13:32:51.025Z,10.36
2022-11-06T13:35:21.998Z,10.40
2022-11-06T13:37:51.165Z,10.39
2022-11-06T13:40:37.186Z,10.47
2022-11-06T13:43:28.900Z,10.25
2022-11-06T13:46:08.890Z,10.31
2022-11-06T13:48:47.755Z,9.93
2022-11-06T13:51:43.735Z,10.08
2022-11-06T13:54:35.254Z,10.40
2022-11-06T13:57:30.602Z,10.67
2022-11-06T14:00:20.044Z,10.47
2022-11-06T14:03:08.557Z,10.80
2022-11-06T14:05:59.723Z,10.83
2022-11-06T14:08:44.844Z,10.46
2022-11-06T14:11:14.912Z,10.22
2022-11-06T14:13:42.133Z,9.89
2022-11-06T14:16:37.505Z,9.64
2022-11-06T14:19:26.994Z,9.48
2022-11-06T14:22:25.529Z,9.48
2022-11-06T14:24:56.983Z,8.99
2022-11-06T14:27:26.672Z,9.14
2022-11-06T14:30:02.396Z,9.02
2022-11-06T14:32:35.525Z,8.78
2022-11-06T14:35:30.975Z,9.29
2022-11-06T14:38:26.943Z,9.33
2022-11-06T14:40:54.631Z,9.60
2022-11-06T14:43:36.842Z,9.47
2022-11-06T14:46:22.175Z,9.28
2022-11-06T14:48:51.953Z,9.03
2022-11-06T14:51:26.488Z,8.62
2022-11-06T14:53:58.923Z,8.65
2022-11-06T14:56:28.900Z,8.52
2022-11-06T14:59:08.974Z,8.14
2022-11-06T15:01:37.508Z,8.06
2022-11-06T15:04:13.372Z,8.21
2022-11-06T15:06:43.829Z,7.88
2022-11-06T15:09:12.334Z,7.97
2022-11-06T15:11:48.001Z,7.88
2022-11-06T15:14:14.864Z,7.64
2022-11-06T15:16:49.786Z,7.39
2022-11-06T15:19:34.447Z,7.26
2022-11-06T15:22:14.113Z,6.94
2022-11-06T15:24:44.357Z,7.01
2022-11-06T15:27:20.545Z,6.51
2022-11-06T15:29:52.059Z,6.62
2022-11-06T15:32:22.663Z,6.43
2022-11-06T15:35:11.254Z,6.59
2022-11-06T15:37:40.451Z,6.47
2022-11-06T15:40:23.365Z,6.43
2022-11-06T15:42:50.368Z,6.38
2022-11-06T15:45:16.984Z,6.39
2022-11-06T15:47:56.759Z,6.30
2022-11-06T15:50:26.374Z,6.26
2022-11-06T15:52:53.274Z,6.08
2022-11-06T15:55:28.886Z,6.03
2022-11-06T15:58:06.208Z,5.87
2022-11-06T16:00:35.844Z,5.78
2022-11-06T16:03:05.418Z,5.48
2022-11-06T16:05:36.858Z,5.41
2022-11-06T16:08:06.146Z,5.54
2022-11-06T16:10:35.939Z,5.38
2022-11-06T16:13:04.026Z,4.96
2022-11-06T16:15:43.761Z,5.20
2022-11-06T16:18:22.888Z,5.11
2022-11-06T16:20:55.379Z,5.21
2022-11-06T16:23:34.845Z,5.02
2022-11-06T16:26:10.089Z,4.87
2022-11-06T16:28:46.639Z,4.81
2022-11-06T16:31:22.409Z,4.89
2022-11-06T16:33:58.307Z,4.74
2022-11-06T16:36:26.768Z,4.10
2022-11-06T16:38:54.764Z,4.27
2022-11-06T16:41:56.913Z,3.83
2022-11-06T16:44:31.776Z,4.19
2022-11-06T16:47:10.646Z,4.27
2022-11-06T16:49:54.090Z,4.30
2022-11-06T16:52:29.460Z,4.12
2022-11-06T16:55:17.259Z,4.29
2022-11-06T16:57:55.207Z,3.98
2022-11-06T17:00:21.829Z,4.24
2022-11-06T17:02:48.450Z,4.09
2022-11-06T17:05:36.983Z,3.46
2022-11-06T17:08:06.887Z,4.07
2022-11-06T17:10:41.129Z,3.91
2022-11-06T17:13:14.402Z,3.62
2022-11-06T17:15:42.593Z,3.77
2022-11-06T17:18:31.752Z,3.53
2022-11-06T17:21:12.449Z,3.74
2022-11-06T17:23:39.687Z,3.62
2022-11-06T17:26:22.585Z,3.66
2022-11-06T17:28:49.639Z,3.48
2022-11-06T17:31:17.790Z,3.59
2022-11-06T17:33:44.783Z,3.49
2022-11-06T17:36:18.995Z,3.33
2022-11-06T17:38:46.517Z,3.30
2022-11-06T17:41:13.598Z,2.88
2022-11-06T17:43:40.348Z,2.94
2022-11-06T17:46:07.101Z,2.68
2022-11-06T17:48:34.993Z,2.84
2022-11-06T17:51:20.287Z,2.83
2022-11-06T17:53:48.301Z,3.01
2022-11-06T17:56:14.941Z,2.77
2022-11-06T17:58:41.677Z,2.77
2022-11-06T18:01:10.481Z,3.23
2022-11-06T18:03:44.300Z,3.08
2022-11-06T18:06:15.633Z,2.89
2022-11-06T18:08:42.855Z,3.12
2022-11-06T18:11:10.598Z,3.14
2022-11-06T18:13:38.260Z,3.05
2022-11-06T18:16:14.135Z,3.06
2022-11-06T18:18:40.815Z,2.76
2022-11-06T18:21:07.464Z,2.90
2022-11-06T18:23:36.072Z,3.03
2022-11-06T18:26:02.728Z,2.86
2022-11-06T18:28:29.519Z,3.17
2022-11-06T18:30:58.217Z,3.19
2022-11-06T18:33:25.356Z,3.17
2022-11-06T18:35:52.139Z,2.89
2022-11-06T18:38:18.867Z,2.81
2022-11-06T18:40:51.210Z,2.72
2022-11-06T18:43:18.491Z,2.90
2022-11-06T18:45:45.178Z,3.00
2022-11-06T18:48:14.726Z,3.40
2022-11-06T18:50:43.968Z,3.08
2022-11-06T18:53:10.740Z,2.74
2022-11-06T18:55:44.542Z,2.70
2022-11-06T18:58:11.666Z,2.60
2022-11-06T19:00:38.693Z,2.41
2022-11-06T19:03:06.149Z,2.85
2022-11-06T19:05:34.338Z,2.79
2022-11-06T19:08:02.546Z,2.74
2022-11-06T19:10:31.265Z,2.86
2022-11-06T19:12:59.617Z,2.60
2022-11-06T19:15:26.660Z,3.04
2022-11-06T19:17:54.720Z,3.03
2022-11-06T19:20:22.292Z,2.91
2022-11-06T19:22:51.069Z,2.99
2022-11-06T19:25:19.125Z,2.80
2022-11-06T19:27:46.184Z,2.45
2022-11-06T19:30:13.774Z,2.74
2022-11-06T19:32:41.100Z,2.73
2022-11-06T19:35:08.384Z,2.60
2022-11-06T19:37:36.142Z,2.60
2022-11-06T19:40:06.040Z,2.47
2022-11-06T19:42:33.445Z,2.67
2022-11-06T19:45:00.379Z,2.94
2022-11-06T19:47:28.171Z,2.75
2022-11-06T19:49:54.824Z,2.73
2022-11-06T19:52:43.272Z,2.58
2022-11-06T19:55:26.416Z,2.61
2022-11-06T19:57:57.332Z,2.67
2022-11-06T20:00:23.985Z,2.39
2022-11-06T20:02:51.063Z,2.51
2022-11-06T20:05:18.272Z,2.52
2022-11-06T20:07:45.023Z,2.85
2022-11-06T20:10:11.904Z,2.60
2022-11-06T20:12:38.604Z,2.81
2022-11-06T20:15:05.836Z,3.00
2022-11-06T20:17:32.533Z,3.17
2022-11-06T20:19:59.120Z,3.37
2022-11-06T20:22:25.846Z,3.13
2022-11-06T20:24:52.517Z,2.44
2022-11-06T20:27:19.273Z,2.53
2022-11-06T20:29:46.057Z,2.48
2022-11-06T20:32:18.627Z,2.76
2022-11-06T20:34:46.094Z,3.04
2022-11-06T20:37:12.952Z,2.69
2022-11-06T20:39:41.581Z,2.76
2022-11-06T20:42:08.622Z,2.90
2022-11-06T20:44:35.333Z,2.79
2022-11-06T20:47:02.006Z,2.75
2022-11-06T20:49:28.726Z,2.72
2022-11-06T20:52:13.363Z,2.78
2022-11-06T20:54:46.405Z,2.97
2022-11-06T20:57:15.670Z,3.15
2022-11-06T20:59:42.599Z,3.31
2022-11-06T21:02:11.641Z,3.43
2022-11-06T21:04:38.577Z,3.42
2022-11-06T21:07:05.554Z,3.44
2022-11-06T21:09:32.474Z,3.54
2022-11-06T21:11:59.144Z,3.71
2022-11-06T21:14:25.909Z,3.75
2022-11-06T21:16:54.108Z,3.56
2022-11-06T21:19:20.835Z,3.65
2022-11-06T21:21:47.633Z,3.69
2022-11-06T21:24:14.314Z,3.60
2022-11-06T21:26:41.353Z,3.58
2022-11-06T21:29:10.877Z,4.00
2022-11-06T21:31:44.028Z,3.89
2022-11-06T21:34:15.711Z,3.52
2022-11-06T21:36:42.658Z,3.99
2022-11-06T21:39:14.946Z,3.55
2022-11-06T21:41:41.967Z,4.02
2022-11-06T21:44:12.296Z,4.15
2022-11-06T21:46:44.222Z,3.92
2022-11-06T21:49:12.218Z,3.21
2022-11-06T21:51:39.039Z,4.06
2022-11-06T21:54:24.286Z,3.82
2022-11-06T21:56:51.039Z,4.07
2022-11-06T21:59:20.438Z,3.94
2022-11-06T22:01:50.140Z,3.70
2022-11-06T22:04:16.929Z,4.17
2022-11-06T22:06:44.098Z,4.12
2022-11-06T22:09:13.000Z,4.13
2022-11-06T22:11:42.683Z,3.86
2022-11-06T22:14:13.512Z,4.00
2022-11-06T22:16:42.563Z,4.10
2022-11-06T22:19:10.571Z,4.06
2022-11-06T22:21:39.107Z,4.01
2022-11-06T22:24:07.166Z,3.88
2022-11-06T22:26:35.320Z,3.98
2022-11-06T22:29:06.090Z,3.81
2022-11-06T22:31:32.905Z,3.86
2022-11-06T22:33:59.752Z,3.77
2022-11-06T22:36:26.781Z,3.68
2022-11-06T22:38:53.909Z,3.95
2022-11-06T22:41:23.724Z,3.94
2022-11-06T22:43:51.338Z,3.90
2022-11-06T22:46:20.636Z,3.79
2022-11-06T22:48:47.873Z,3.83
2022-11-06T22:51:17.480Z,4.05
2022-11-06T22:53:44.251Z,3.72
2022-11-06T22:56:12.637Z,4.01
2022-11-06T22:58:40.833Z,3.94
2022-11-06T23:01:08.446Z,3.80
2022-11-06T23:03:35.691Z,3.94
2022-11-06T23:06:04.751Z,3.87
2022-11-06T23:08:31.732Z,3.59
2022-11-06T23:10:59.309Z,3.67
2022-11-06T23:13:25.915Z,3.92
2022-11-06T23:16:02.102Z,3.98
2022-11-06T23:18:28.724Z,3.60
2022-11-06T23:20:55.388Z,3.75
2022-11-06T23:23:22.027Z,3.79
2022-11-06T23:25:48.728Z,3.85
2022-11-06T23:28:15.613Z,4.06
2022-11-06T23:30:42.303Z,3.81
2022-11-06T23:33:08.942Z,3.70
2022-11-06T23:35:35.568Z,3.93
2022-11-06T23:38:02.209Z,4.04
2022-11-06T23:40:28.851Z,4.03
2022-11-06T23:42:57.205Z,4.07
2022-11-06T23:45:42.431Z,4.00
2022-11-06T23:48:13.444Z,4.14
2022-11-06T23:50:41.192Z,3.83
2022-11-06T23:53:07.836Z,3.75
2022-11-06T23:55:34.544Z,3.88
2022-11-06T23:58:01.233Z,4.07
